DAAGDAOB

Guest
Details From DAAG - Alger Houari Boumediene
To DAOB - BOU CHEKIF
Flight Number -
Tags generated
Created
Modified
Stats Distance 133 nm / 246 km
Max Altitude 17,600 ft / 5,364 m
Waypoints 3
Social Downloads 1
Likes 0
Share VATSIM

Download

Looking for another format? Having issues loading an existing format? Contact us
Advertisement - Login to hide

Notes

Basic altitude profile: - Ascent Rate: 2500ft/min - Ascent Speed: 250kts - Cruise Altitude: 35000ft - Cruise Speed: 420kts - Descent Rate: 1500ft/min - Descent Speed: 250kts Options: - Use NATs: yes - Use PACOTS: yes - Use low airways: yes - Use high airways: yes

Route

DAAG CHE DAOB

ID Type Via Altitude (ft/m) Position (lat/lon) Dist (leg/tot) Name
O DAAG APT - 0 / 0 36.69752 / 3.21308 - / 0 nm Alger Houari Boumediene
CHE NDB - 17,600 / 5,364 36.60139 / 2.19333 49 / 49 nm CHERCHELL NDB
O DAOB APT - 0 / 0 35.34114 / 1.46315 83 / 133 nm BOU CHEKIF

Altitude Profile

Advertisement - Login to hide

DAAG

Details ICAO DAAG (ALG)
Name Alger Houari Boumediene
Region Algeria
Timezone Africa/Algiers (UTC+1.0)
Stats Elevation 82 ft / 25 m (AMSL)
Location 36.697500° 3.213080°
Runways 2
Magnetic Variation 1.144° E

METAR

DAAG 210700Z 00000KT 6000 NSC 16/16 Q1019

Decode

TAF

TAF DAAG 210500Z 2106/2206 VRB02KT 8000 FEW016 TEMPO 2106/2108 3000 BR BECMG 2108/2111 04010KT BECMG 2118/2121 VRB02KT

Decode

Departure Runways

ID Width Length Bearing (true/mag) Surface Threshold Overrun Markings Lighting
05 197 ft / 60 m 11,459 ft / 3,493 m 52.87° / 51.73° ASPHALT 0 ft / 0 m 0 ft / 0 m PREC-APP EDGE THRESHOLD
09 148 ft / 45 m 11,442 ft / 3,487 m 91.75° / 90.61° ASPHALT 0 ft / 0 m 1,017 ft / 310 m PREC-APP EDGE THRESHOLD
23 197 ft / 60 m 11,459 ft / 3,493 m 232.89° / 231.75° ASPHALT 0 ft / 0 m 0 ft / 0 m PREC-APP EDGE THRESHOLD
27 148 ft / 45 m 11,442 ft / 3,487 m 271.78° / 270.63° ASPHALT 0 ft / 0 m 0 ft / 0 m PREC-APP EDGE THRESHOLD

DAOB

Details ICAO DAOB (TID)
Name BOU CHEKIF
Region Algeria
Timezone Africa/Algiers (UTC+1.0)
Stats Elevation 3,245 ft / 989 m (AMSL)
Location 35.341100° 1.463150°
Runways 1
Magnetic Variation 0.725° E

METAR

DAOB 210700Z 00000KT CAVOK 14/11 Q1022

Decode

TAF

TAF DAOB 210500Z 2106/2206 16010KT CAVOK BECMG 2111/2114 24010KT BECMG 2120/2123 VRB02KT

Decode

Destination Runways

ID Width Length Bearing (true/mag) Surface Threshold Overrun Markings Lighting
08 148 ft / 45 m 9,810 ft / 2,990 m 81.23° / 80.51° ASPHALT 0 ft / 0 m 198 ft / 60 m APP EDGE THRESHOLD
26 148 ft / 45 m 9,810 ft / 2,990 m 261.25° / 260.53° ASPHALT 0 ft / 0 m 198 ft / 60 m APP EDGE THRESHOLD

Popular Alternatives